Time;durP1;ratioP1;P1;durP2;ratioP2;P2;SDS_P1;SDS_P2;PMS_P1;PMS_P2;Temp;Humidity;BMP_temperature;BMP_pressure;BME280_temperature;BME280_humidity;BME280_pressure;Samples;Min_cycle;Max_cycle;Signal;HPM_P1;HPM_P2
2021/12/25 00:01:05;;;;;;;4.07;2.43;;;;;;;;;;4993885;28;20272;-49
2021/12/25 00:03:34;;;;;;;7.10;3.77;;;;;;;;;;4993218;28;20683;-49
2021/12/25 00:06:05;;;;;;;5.00;3.23;;;;;;;;;;4996707;28;20178;-49
2021/12/25 00:08:34;;;;;;;6.57;4.07;;;;;;;;;;4994971;28;20232;-49
2021/12/25 00:11:05;;;;;;;5.03;2.77;;;;;;;;;;4994045;28;20275;-49
2021/12/25 00:13:37;;;;;;;4.47;3.40;;;;;;;;;;4993910;28;20286;-49
2021/12/25 00:16:08;;;;;;;5.70;3.67;;;;;;;;;;4993548;28;20283;-49
2021/12/25 00:18:40;;;;;;;6.20;4.00;;;;;;;;;;4993264;28;20253;-49
2021/12/25 00:21:11;;;;;;;6.53;4.03;;;;;;;;;;4991495;28;20518;-49
2021/12/25 00:23:43;;;;;;;5.50;3.30;;;;;;;;;;4996248;28;20498;-49
2021/12/25 00:26:34;;;;;;;7.50;4.83;;;;;;;;;;4991871;28;20574;-49
2021/12/25 00:29:32;;;;;;;7.47;4.67;;;;;;;;;;4994410;28;20208;-49
2021/12/25 00:34:40;;;;;;;5.33;3.43;;;;;;;;;;4994576;28;20189;-49
2021/12/25 00:37:09;;;;;;;3.83;2.47;;;;;;;;;;4995932;28;20265;-49
2021/12/25 00:39:36;;;;;;;4.53;2.87;;;;;;;;;;4976127;28;20638;-49
2021/12/25 00:42:02;;;;;;;5.13;2.97;;;;;;;;;;4997190;28;20209;-49
2021/12/25 00:44:28;;;;;;;7.23;4.63;;;;;;;;;;4996152;28;20190;-49
2021/12/25 00:46:55;;;;;;;4.17;2.43;;;;;;;;;;5000595;28;20189;-49
2021/12/25 00:49:20;;;;;;;4.20;3.03;;;;;;;;;;4999585;28;20191;-49
2021/12/25 00:51:47;;;;;;;4.90;3.10;;;;;;;;;;4996337;28;20216;-49
2021/12/25 00:54:15;;;;;;;6.67;4.87;;;;;;;;;;4992566;28;20533;-49
2021/12/25 00:56:41;;;;;;;4.33;3.13;;;;;;;;;;4999610;28;20292;-49
2021/12/25 00:59:12;;;;;;;5.17;3.40;;;;;;;;;;4994553;28;20654;-49
2021/12/25 01:01:46;;;;;;;6.07;4.23;;;;;;;;;;5000339;28;20349;-49
2021/12/25 01:04:12;;;;;;;4.70;3.47;;;;;;;;;;4993112;28;20215;-49
2021/12/25 01:06:42;;;;;;;3.17;2.83;;;;;;;;;;4996592;28;20656;-49
2021/12/25 01:09:08;;;;;;;4.70;3.20;;;;;;;;;;4998867;28;20190;-49
2021/12/25 01:11:36;;;;;;;7.37;4.37;;;;;;;;;;4998722;28;20207;-49
2021/12/25 01:14:33;;;;;;;2.97;2.43;;;;;;;;;;4994864;28;20185;-49
2021/12/25 01:20:15;;;;;;;1.70;1.60;;;;;;;;;;5002096;28;20216;-49
2021/12/25 01:25:52;;;;;;;6.07;4.23;;;;;;;;;;4993743;28;20533;-49
2021/12/25 01:48:06;;;;;;;4.30;3.37;;;;;;;;;;4999157;28;20391;-49
2021/12/25 01:50:33;;;;;;;8.93;5.37;;;;;;;;;;4994813;28;20279;-49
2021/12/25 01:52:59;;;;;;;6.70;3.83;;;;;;;;;;4997187;28;20281;-49
2021/12/25 01:55:39;;;;;;;5.63;3.57;;;;;;;;;;4982313;28;20276;-49
2021/12/25 01:58:05;;;;;;;4.30;2.73;;;;;;;;;;4993683;28;20185;-49
2021/12/25 02:00:37;;;;;;;7.00;3.97;;;;;;;;;;4997639;28;20202;-49
2021/12/25 02:03:05;;;;;;;5.90;3.87;;;;;;;;;;4994219;28;20233;-49
2021/12/25 02:05:31;;;;;;;6.27;4.10;;;;;;;;;;4996024;28;20192;-49
2021/12/25 02:07:57;;;;;;;7.47;4.47;;;;;;;;;;4992006;28;20224;-49
2021/12/25 02:10:23;;;;;;;5.63;3.43;;;;;;;;;;4997000;28;20217;-49
2021/12/25 02:12:49;;;;;;;3.50;3.17;;;;;;;;;;4994390;28;20215;-49
2021/12/25 02:15:19;;;;;;;7.33;4.17;;;;;;;;;;4996010;28;20255;-49
2021/12/25 02:18:42;;;;;;;5.23;3.33;;;;;;;;;;4997892;28;20190;-49
2021/12/25 02:20:47;;;;;;;4.93;3.13;;;;;;;;;;4986801;28;20217;-49
2021/12/25 02:23:16;;;;;;;5.73;3.57;;;;;;;;;;4995865;28;20581;-49
2021/12/25 02:25:42;;;;;;;3.17;2.60;;;;;;;;;;4997963;28;20668;-49
2021/12/25 02:28:21;;;;;;;2.20;2.00;;;;;;;;;;4996149;28;20284;-49
2021/12/25 02:30:56;;;;;;;4.90;3.10;;;;;;;;;;4993767;28;20732;-49
2021/12/25 02:33:23;;;;;;;5.67;3.90;;;;;;;;;;4997369;28;20293;-49
2021/12/25 02:35:50;;;;;;;1.40;1.30;;;;;;;;;;4994326;28;20300;-49
2021/12/25 02:38:17;;;;;;;2.93;2.67;;;;;;;;;;4998824;28;20729;-49
2021/12/25 02:40:44;;;;;;;4.07;3.10;;;;;;;;;;5000344;28;20417;-49
2021/12/25 02:43:11;;;;;;;4.77;3.47;;;;;;;;;;4997724;28;20391;-49
2021/12/25 02:45:39;;;;;;;2.20;2.00;;;;;;;;;;4997459;28;20181;-49
2021/12/25 02:48:09;;;;;;;4.67;2.93;;;;;;;;;;4997065;28;20577;-49
2021/12/25 02:50:39;;;;;;;5.17;3.17;;;;;;;;;;4988852;28;20220;-49
2021/12/25 02:53:12;;;;;;;3.90;2.60;;;;;;;;;;4998447;28;20538;-49
2021/12/25 02:55:42;;;;;;;4.53;3.03;;;;;;;;;;4994746;28;20280;-49
2021/12/25 02:58:12;;;;;;;2.10;1.83;;;;;;;;;;4994586;28;20181;-49
2021/12/25 03:00:43;;;;;;;6.63;3.87;;;;;;;;;;4994300;28;20358;-49
2021/12/25 03:03:12;;;;;;;5.70;3.70;;;;;;;;;;4996116;28;20712;-49
2021/12/25 03:05:41;;;;;;;4.27;2.53;;;;;;;;;;4997285;28;20307;-49
2021/12/25 03:08:12;;;;;;;6.03;3.37;;;;;;;;;;4996992;28;20268;-49
2021/12/25 03:10:42;;;;;;;5.43;3.37;;;;;;;;;;4993097;28;21818;-49
2021/12/25 03:15:49;;;;;;;4.27;2.57;;;;;;;;;;4995243;28;20637;-49
2021/12/25 03:18:28;;;;;;;1.63;1.50;;;;;;;;;;5007327;28;20212;-49
2021/12/25 03:20:58;;;;;;;2.30;2.03;;;;;;;;;;4996842;28;20207;-49
2021/12/25 03:23:24;;;;;;;4.30;1.87;;;;;;;;;;5020892;23;20220;-47
2021/12/25 03:25:51;;;;;;;7.57;3.00;;;;;;;;;;5030901;28;20255;-47
2021/12/25 03:28:18;;;;;;;5.67;2.40;;;;;;;;;;5030628;28;20238;-47
2021/12/25 03:30:45;;;;;;;6.97;2.70;;;;;;;;;;5031287;28;20188;-47
2021/12/25 03:33:12;;;;;;;6.67;2.87;;;;;;;;;;5030304;28;20433;-47
2021/12/25 03:35:38;;;;;;;5.90;2.60;;;;;;;;;;5013512;28;20242;-48
2021/12/25 03:38:05;;;;;;;5.93;2.70;;;;;;;;;;5031043;28;20176;-47
2021/12/25 03:40:32;;;;;;;3.53;1.67;;;;;;;;;;5030555;28;20212;-47
2021/12/25 03:42:58;;;;;;;2.97;1.47;;;;;;;;;;5030618;28;20275;-47
2021/12/25 03:45:24;;;;;;;6.13;2.63;;;;;;;;;;5030893;28;20207;-47
2021/12/25 03:47:53;;;;;;;6.10;2.70;;;;;;;;;;5030296;28;20168;-47
2021/12/25 03:58:29;;;;;;;6.60;2.90;;;;;;;;;;5030740;28;20175;-47
2021/12/25 04:01:01;;;;;;;4.93;2.43;;;;;;;;;;5030636;28;20196;-47
2021/12/25 04:03:50;;;;;;;5.43;2.77;;;;;;;;;;5030219;28;20195;-48
2021/12/25 04:06:16;;;;;;;4.87;2.57;;;;;;;;;;5030601;28;20169;-47
2021/12/25 04:08:45;;;;;;;4.80;2.57;;;;;;;;;;5030495;28;20660;-48
2021/12/25 04:11:15;;;;;;;8.77;4.27;;;;;;;;;;5030240;28;20179;-47
2021/12/25 04:13:41;;;;;;;4.43;2.43;;;;;;;;;;5030245;28;20188;-47
2021/12/25 04:16:07;;;;;;;5.23;2.70;;;;;;;;;;5030556;28;20184;-47
2021/12/25 04:18:32;;;;;;;2.60;1.60;;;;;;;;;;5030314;28;20181;-47
2021/12/25 04:20:58;;;;;;;6.37;3.33;;;;;;;;;;5032062;28;20682;-47
2021/12/25 04:23:27;;;;;;;4.83;2.73;;;;;;;;;;5034368;28;20211;-47
2021/12/25 04:25:56;;;;;;;4.13;2.37;;;;;;;;;;5034503;28;20183;-47
2021/12/25 04:31:11;;;;;;;5.30;2.93;;;;;;;;;;5034388;28;20160;-47
2021/12/25 05:04:11;;;;;;;4.63;2.50;;;;;;;;;;5033178;28;20207;-47
2021/12/25 05:06:36;;;;;;;3.40;2.00;;;;;;;;;;5033468;28;20181;-47
2021/12/25 05:09:03;;;;;;;4.57;2.57;;;;;;;;;;5015956;28;20632;-48
2021/12/25 05:11:29;;;;;;;4.93;2.60;;;;;;;;;;5033570;28;20176;-47
2021/12/25 05:13:54;;;;;;;3.30;2.00;;;;;;;;;;5033355;28;20188;-47
2021/12/25 05:16:21;;;;;;;5.50;3.07;;;;;;;;;;5033182;28;20176;-47
2021/12/25 05:18:50;;;;;;;4.77;2.70;;;;;;;;;;5033845;28;20250;-47
2021/12/25 05:21:16;;;;;;;4.20;2.37;;;;;;;;;;5033673;28;20192;-47
2021/12/25 05:23:42;;;;;;;4.23;2.33;;;;;;;;;;5032777;28;20552;-48
2021/12/25 05:26:08;;;;;;;4.03;2.33;;;;;;;;;;5033422;28;20218;-47
2021/12/25 05:28:42;;;;;;;5.07;2.73;;;;;;;;;;5033128;28;20533;-47
2021/12/25 05:31:09;;;;;;;4.63;2.53;;;;;;;;;;5033466;28;20155;-47
2021/12/25 05:33:35;;;;;;;4.30;2.40;;;;;;;;;;5032926;28;20200;-47
2021/12/25 05:36:01;;;;;;;2.30;1.50;;;;;;;;;;5033032;28;20177;-47
2021/12/25 05:38:27;;;;;;;4.73;2.67;;;;;;;;;;5032957;28;20239;-47
2021/12/25 05:40:53;;;;;;;5.17;2.90;;;;;;;;;;5032727;28;20204;-47
2021/12/25 05:43:19;;;;;;;4.83;2.77;;;;;;;;;;5032806;28;20197;-47
2021/12/25 05:45:45;;;;;;;2.73;1.67;;;;;;;;;;5033357;28;20536;-47
2021/12/25 05:48:11;;;;;;;4.20;2.43;;;;;;;;;;5032594;28;20621;-47
2021/12/25 05:50:37;;;;;;;3.57;2.10;;;;;;;;;;5033099;28;20188;-47
2021/12/25 05:53:04;;;;;;;4.57;2.60;;;;;;;;;;5032507;28;20214;-47
2021/12/25 05:55:30;;;;;;;5.27;2.97;;;;;;;;;;5032334;28;20611;-46
2021/12/25 05:57:56;;;;;;;4.43;2.50;;;;;;;;;;5033146;28;20184;-47
2021/12/25 06:00:23;;;;;;;4.93;2.80;;;;;;;;;;5032515;28;20540;-47
2021/12/25 06:02:49;;;;;;;3.97;2.33;;;;;;;;;;5033061;28;20196;-47
2021/12/25 06:05:15;;;;;;;4.87;2.90;;;;;;;;;;5032856;28;20180;-47
2021/12/25 06:07:41;;;;;;;3.90;2.27;;;;;;;;;;5032478;28;20196;-47
2021/12/25 06:10:09;;;;;;;6.27;3.30;;;;;;;;;;5032924;28;20651;-47
2021/12/25 06:12:37;;;;;;;5.07;2.77;;;;;;;;;;5031962;28;20686;-48
2021/12/25 06:15:05;;;;;;;4.57;2.53;;;;;;;;;;5032619;28;20467;-47
2021/12/25 06:17:31;;;;;;;5.07;2.87;;;;;;;;;;5032449;28;20275;-47
2021/12/25 06:19:57;;;;;;;4.03;2.40;;;;;;;;;;5032268;28;20173;-47
2021/12/25 06:22:23;;;;;;;5.07;2.90;;;;;;;;;;5032278;28;20212;-47
2021/12/25 06:24:49;;;;;;;4.73;2.53;;;;;;;;;;5032159;28;20227;-47
2021/12/25 06:27:20;;;;;;;5.10;2.90;;;;;;;;;;5031806;28;20172;-47
2021/12/25 06:29:46;;;;;;;2.27;1.60;;;;;;;;;;5032253;28;20218;-48
2021/12/25 06:32:12;;;;;;;3.70;2.13;;;;;;;;;;5031663;28;20947;-47
2021/12/25 06:34:38;;;;;;;2.20;1.50;;;;;;;;;;5031866;28;20184;-47
2021/12/25 06:37:04;;;;;;;5.40;2.97;;;;;;;;;;5031840;28;20549;-47
2021/12/25 06:39:31;;;;;;;4.43;2.50;;;;;;;;;;5031858;28;20181;-47
2021/12/25 06:41:57;;;;;;;4.50;2.50;;;;;;;;;;5032186;28;20220;-47
2021/12/25 06:44:27;;;;;;;4.37;2.57;;;;;;;;;;5030483;28;20223;-48
2021/12/25 06:46:53;;;;;;;3.43;1.93;;;;;;;;;;5031648;28;20543;-48
2021/12/25 06:49:19;;;;;;;5.03;2.63;;;;;;;;;;5031831;28;20172;-48
2021/12/25 06:51:45;;;;;;;5.83;2.97;;;;;;;;;;5031246;28;20268;-47
2021/12/25 06:54:11;;;;;;;4.00;2.43;;;;;;;;;;5031713;28;20238;-47
2021/12/25 06:56:37;;;;;;;6.00;3.23;;;;;;;;;;5031653;28;20177;-47
2021/12/25 06:59:03;;;;;;;0.80;0.80;;;;;;;;;;5031953;28;20180;-47
2021/12/25 07:01:29;;;;;;;3.33;2.00;;;;;;;;;;5032282;28;20287;-47
2021/12/25 07:03:55;;;;;;;5.00;2.73;;;;;;;;;;5031421;28;20176;-47
2021/12/25 07:06:21;;;;;;;4.53;2.50;;;;;;;;;;5031699;28;20249;-47
2021/12/25 07:08:47;;;;;;;4.50;2.87;;;;;;;;;;5031304;28;20666;-47
2021/12/25 07:11:14;;;;;;;6.17;2.67;;;;;;;;;;5031213;28;20180;-47
2021/12/25 07:13:45;;;;;;;5.80;2.37;;;;;;;;;;5030697;28;20588;-48
2021/12/25 07:16:11;;;;;;;7.03;3.00;;;;;;;;;;5031266;28;20176;-46
2021/12/25 07:18:37;;;;;;;6.90;2.73;;;;;;;;;;5031108;28;20177;-46
2021/12/25 07:21:03;;;;;;;6.70;2.95;;;;;;;;;;5031236;28;20209;-46
2021/12/25 07:23:29;;;;;;;7.10;3.03;;;;;;;;;;5030679;28;20208;-46
2021/12/25 07:25:56;;;;;;;7.03;3.10;;;;;;;;;;5031132;28;20169;-46
2021/12/25 07:28:22;;;;;;;4.33;2.07;;;;;;;;;;5031214;28;20172;-47
2021/12/25 07:30:50;;;;;;;4.97;2.30;;;;;;;;;;5030827;28;20256;-47
2021/12/25 07:33:16;;;;;;;2.33;1.33;;;;;;;;;;5031297;28;20196;-47
2021/12/25 07:35:43;;;;;;;6.70;3.10;;;;;;;;;;5031028;28;20172;-46
2021/12/25 07:38:08;;;;;;;6.03;2.73;;;;;;;;;;5030377;28;20227;-47
2021/12/25 07:40:34;;;;;;;3.63;1.73;;;;;;;;;;5031249;28;20643;-47
2021/12/25 07:43:00;;;;;;;6.17;2.67;;;;;;;;;;5030364;28;20203;-47
2021/12/25 07:45:26;;;;;;;7.73;3.17;;;;;;;;;;5030906;28;20528;-47
2021/12/25 07:48:01;;;;;;;5.87;2.50;;;;;;;;;;5030900;28;20175;-46
2021/12/25 07:50:30;;;;;;;6.23;2.77;;;;;;;;;;5030506;28;20156;-47
2021/12/25 07:52:56;;;;;;;6.33;2.87;;;;;;;;;;5012799;28;20243;-46
2021/12/25 07:55:22;;;;;;;9.70;3.97;;;;;;;;;;5029729;28;20180;-47
2021/12/25 07:57:49;;;;;;;6.07;2.57;;;;;;;;;;5031297;28;20172;-46
2021/12/25 08:00:15;;;;;;;3.77;1.77;;;;;;;;;;5030865;28;20184;-47
2021/12/25 08:02:42;;;;;;;6.03;2.40;;;;;;;;;;5030143;28;20556;-47
2021/12/25 08:05:08;;;;;;;5.23;2.40;;;;;;;;;;5030839;28;20179;-46
2021/12/25 08:07:34;;;;;;;5.80;2.63;;;;;;;;;;5030628;28;20273;-47
2021/12/25 08:10:13;;;;;;;3.00;1.57;;;;;;;;;;5030362;28;20176;-47
2021/12/25 08:12:52;;;;;;;5.27;2.37;;;;;;;;;;5030504;28;20238;-46
2021/12/25 08:15:19;;;;;;;5.17;2.30;;;;;;;;;;5029906;28;20160;-47
2021/12/25 08:17:45;;;;;;;5.10;2.47;;;;;;;;;;5012782;28;20619;-47
2021/12/25 08:20:11;;;;;;;4.33;2.20;;;;;;;;;;5030701;28;20173;-47
2021/12/25 08:22:38;;;;;;;5.77;2.83;;;;;;;;;;5029726;28;20280;-47
2021/12/25 08:25:04;;;;;;;5.07;2.47;;;;;;;;;;5030658;28;20184;-47
2021/12/25 08:27:31;;;;;;;5.00;2.40;;;;;;;;;;5030791;28;20172;-46
2021/12/25 08:29:57;;;;;;;4.97;2.23;;;;;;;;;;5030217;28;20173;-47
2021/12/25 08:32:23;;;;;;;5.80;2.47;;;;;;;;;;5012461;28;20262;-47
2021/12/25 08:34:49;;;;;;;9.77;3.73;;;;;;;;;;5012043;28;20267;-47
2021/12/25 08:37:15;;;;;;;5.53;2.37;;;;;;;;;;5030187;28;20196;-47
2021/12/25 08:39:41;;;;;;;5.90;2.83;;;;;;;;;;5030493;28;20168;-46
2021/12/25 08:42:09;;;;;;;4.00;2.00;;;;;;;;;;5029847;28;20219;-46
2021/12/25 08:44:39;;;;;;;4.30;2.23;;;;;;;;;;5030330;28;20204;-47
2021/12/25 08:47:06;;;;;;;3.80;2.00;;;;;;;;;;5012976;28;20169;-47
2021/12/25 08:49:34;;;;;;;1.60;1.13;;;;;;;;;;5029873;28;20203;-48
2021/12/25 08:52:01;;;;;;;3.77;2.03;;;;;;;;;;5030327;28;20196;-47
2021/12/25 08:54:28;;;;;;;7.03;3.03;;;;;;;;;;5030137;28;20172;-47
2021/12/25 08:56:54;;;;;;;4.03;1.80;;;;;;;;;;5012364;28;20184;-47
2021/12/25 08:59:20;;;;;;;3.17;1.80;;;;;;;;;;5012734;28;20181;-47
2021/12/25 09:01:46;;;;;;;4.20;2.17;;;;;;;;;;5030122;28;20258;-47
2021/12/25 09:04:13;;;;;;;3.53;2.00;;;;;;;;;;5030517;28;20176;-46
2021/12/25 09:06:39;;;;;;;4.90;2.43;;;;;;;;;;5030852;28;20172;-46
2021/12/25 09:09:06;;;;;;;4.93;2.37;;;;;;;;;;5033857;28;20255;-48
2021/12/25 09:11:32;;;;;;;5.00;2.27;;;;;;;;;;5034123;28;20658;-47
2021/12/25 09:13:58;;;;;;;6.60;3.03;;;;;;;;;;5033281;28;20259;-46
2021/12/25 09:16:24;;;;;;;4.17;2.27;;;;;;;;;;5015971;28;20280;-47
2021/12/25 09:18:50;;;;;;;5.33;2.47;;;;;;;;;;5033818;28;20200;-47
2021/12/25 09:21:16;;;;;;;1.97;1.30;;;;;;;;;;5033653;28;20200;-48
2021/12/25 09:26:11;;;;;;;7.03;5.07;;;;;;;;;;4961652;28;20214;-50
2021/12/25 09:28:37;;;;;;;6.07;3.87;;;;;;;;;;4967567;28;20198;-48
2021/12/25 09:31:03;;;;;;;6.70;4.63;;;;;;;;;;4963094;28;20182;-48
2021/12/25 09:33:30;;;;;;;5.93;4.53;;;;;;;;;;4983634;28;20891;-50
2021/12/25 09:35:56;;;;;;;3.20;2.90;;;;;;;;;;4980793;28;20185;-48
2021/12/25 09:38:22;;;;;;;6.83;5.80;;;;;;;;;;4986318;28;20268;-48
2021/12/25 09:40:48;;;;;;;7.57;4.87;;;;;;;;;;4991189;28;20228;-48
2021/12/25 09:43:17;;;;;;;8.00;6.10;;;;;;;;;;4982228;28;20209;-50
2021/12/25 09:45:43;;;;;;;6.20;4.37;;;;;;;;;;4983654;28;20270;-48
2021/12/25 09:48:09;;;;;;;8.30;6.23;;;;;;;;;;4984587;28;20549;-48
2021/12/25 09:50:35;;;;;;;5.83;4.53;;;;;;;;;;4992254;28;20544;-46
2021/12/25 09:53:04;;;;;;;8.47;4.70;;;;;;;;;;4980022;28;20235;-49
2021/12/25 09:55:30;;;;;;;4.33;2.67;;;;;;;;;;5010322;28;20181;-45
2021/12/25 09:57:56;;;;;;;6.17;4.50;;;;;;;;;;4987767;28;20189;-47
2021/12/25 10:00:23;;;;;;;7.67;4.83;;;;;;;;;;4983785;28;20185;-47
2021/12/25 10:02:53;;;;;;;6.50;4.67;;;;;;;;;;4993507;28;20620;-49
2021/12/25 10:05:25;;;;;;;6.70;4.00;;;;;;;;;;4989965;28;20317;-47
2021/12/25 10:08:00;;;;;;;7.23;4.80;;;;;;;;;;4984898;28;20197;-47
2021/12/25 10:10:35;;;;;;;7.00;4.63;;;;;;;;;;4993380;28;20181;-47
2021/12/25 10:13:01;;;;;;;6.73;4.17;;;;;;;;;;4994418;28;20473;-47
2021/12/25 10:15:28;;;;;;;7.07;4.60;;;;;;;;;;4978977;28;20263;-47
2021/12/25 10:17:56;;;;;;;4.60;3.60;;;;;;;;;;4989754;28;20213;-47
2021/12/25 10:20:24;;;;;;;6.00;4.20;;;;;;;;;;4985881;28;20192;-47
2021/12/25 10:22:58;;;;;;;7.17;4.50;;;;;;;;;;4989167;28;20291;-47
2021/12/25 10:25:24;;;;;;;7.03;3.50;;;;;;;;;;4988415;28;20196;-47
2021/12/25 10:27:52;;;;;;;6.80;3.73;;;;;;;;;;4994317;28;20210;-47
2021/12/25 10:30:18;;;;;;;6.50;4.43;;;;;;;;;;4986219;28;20449;-47
2021/12/25 10:32:44;;;;;;;4.53;2.77;;;;;;;;;;4991748;28;20646;-46
2021/12/25 10:35:18;;;;;;;7.60;4.67;;;;;;;;;;4992419;28;20223;-47
2021/12/25 10:37:44;;;;;;;8.37;5.20;;;;;;;;;;4991604;28;20268;-47
2021/12/25 10:40:18;;;;;;;6.13;3.70;;;;;;;;;;4990738;28;20490;-47
2021/12/25 10:42:45;;;;;;;7.57;4.50;;;;;;;;;;4977568;28;20220;-47
2021/12/25 10:45:13;;;;;;;6.97;5.00;;;;;;;;;;4984760;28;20241;-47
2021/12/25 10:47:39;;;;;;;8.53;5.13;;;;;;;;;;4986489;28;20186;-47
2021/12/25 10:50:13;;;;;;;6.30;3.97;;;;;;;;;;4994588;28;20191;-47
2021/12/25 10:52:42;;;;;;;11.37;7.30;;;;;;;;;;4987790;28;20213;-47
2021/12/25 10:55:25;;;;;;;10.37;6.00;;;;;;;;;;4987191;28;20208;-47
2021/12/25 10:57:56;;;;;;;10.30;6.73;;;;;;;;;;4987681;28;20672;-47
2021/12/25 11:00:21;;;;;;;8.47;5.33;;;;;;;;;;4983337;28;20254;-47
2021/12/25 11:02:54;;;;;;;5.83;4.03;;;;;;;;;;4988470;28;20228;-47
2021/12/25 11:05:23;;;;;;;8.77;5.73;;;;;;;;;;4986291;28;20290;-47
2021/12/25 11:08:01;;;;;;;7.20;5.10;;;;;;;;;;4991275;28;20292;-47
2021/12/25 11:10:29;;;;;;;9.77;5.63;;;;;;;;;;4985880;28;20224;-47
2021/12/25 11:12:55;;;;;;;10.07;5.73;;;;;;;;;;4982586;28;20213;-47
2021/12/25 11:15:23;;;;;;;6.50;4.13;;;;;;;;;;4992168;28;20515;-47
2021/12/25 11:17:53;;;;;;;6.30;3.87;;;;;;;;;;4988815;28;20787;-47
2021/12/25 11:20:39;;;;;;;5.57;3.87;;;;;;;;;;4992322;28;20184;-47
2021/12/25 11:23:07;;;;;;;11.93;7.33;;;;;;;;;;4989223;28;20770;-47
2021/12/25 11:25:34;;;;;;;8.00;5.20;;;;;;;;;;4981379;28;20204;-47
2021/12/25 11:28:01;;;;;;;8.30;5.00;;;;;;;;;;4992621;28;20185;-47
2021/12/25 11:30:30;;;;;;;5.53;4.37;;;;;;;;;;4985544;28;20182;-47
2021/12/25 11:32:56;;;;;;;8.43;5.03;;;;;;;;;;4982327;28;20326;-47
2021/12/25 11:35:22;;;;;;;7.57;4.90;;;;;;;;;;4987581;28;20276;-47
2021/12/25 11:37:50;;;;;;;5.27;3.77;;;;;;;;;;4992365;28;20195;-47
2021/12/25 11:40:17;;;;;;;9.30;5.67;;;;;;;;;;4988436;28;20200;-48
2021/12/25 11:42:45;;;;;;;5.30;3.40;;;;;;;;;;4983004;28;20213;-48
2021/12/25 11:45:12;;;;;;;9.43;6.07;;;;;;;;;;4980036;28;20220;-48
2021/12/25 11:47:40;;;;;;;10.00;6.30;;;;;;;;;;4989959;28;20196;-48
2021/12/25 11:50:08;;;;;;;10.57;6.60;;;;;;;;;;4988123;28;20261;-48
2021/12/25 11:52:49;;;;;;;11.33;7.33;;;;;;;;;;4976174;28;20233;-47
2021/12/25 11:55:30;;;;;;;10.63;6.77;;;;;;;;;;4988919;28;20238;-47
2021/12/25 12:00:46;;;;;;;7.73;4.93;;;;;;;;;;4987653;28;20564;-47
2021/12/25 12:03:32;;;;;;;9.93;6.23;;;;;;;;;;4986559;28;20240;-48
2021/12/25 12:05:57;;;;;;;8.87;5.53;;;;;;;;;;4991973;28;20196;-47
2021/12/25 12:08:23;;;;;;;6.67;4.33;;;;;;;;;;4982040;28;20272;-47
2021/12/25 12:10:49;;;;;;;8.30;5.20;;;;;;;;;;4988224;28;20262;-47
2021/12/25 12:13:19;;;;;;;10.33;6.20;;;;;;;;;;4983551;28;20225;-48
2021/12/25 12:15:50;;;;;;;6.97;4.00;;;;;;;;;;4984098;28;20190;-47
2021/12/25 12:18:30;;;;;;;9.23;5.90;;;;;;;;;;4988595;28;20676;-48
2021/12/25 12:21:07;;;;;;;8.80;5.80;;;;;;;;;;4986233;28;20287;-47
2021/12/25 12:24:09;;;;;;;9.03;6.80;;;;;;;;;;4979848;28;20212;-48
2021/12/25 12:26:53;;;;;;;5.87;4.47;;;;;;;;;;4986193;28;20291;-47
2021/12/25 12:29:37;;;;;;;6.43;5.23;;;;;;;;;;4987575;28;20184;-47
2021/12/25 12:32:04;;;;;;;6.20;5.60;;;;;;;;;;4992533;28;20216;-47
2021/12/25 12:34:30;;;;;;;5.37;4.47;;;;;;;;;;4982624;28;20338;-47
2021/12/25 12:37:16;;;;;;;5.63;4.67;;;;;;;;;;4986939;28;20279;-48
2021/12/25 12:40:06;;;;;;;7.60;6.43;;;;;;;;;;4985696;28;20287;-47
2021/12/25 12:42:38;;;;;;;8.27;7.33;;;;;;;;;;4980843;28;20466;-47
2021/12/25 12:45:08;;;;;;;4.20;3.80;;;;;;;;;;4989169;28;20192;-48
2021/12/25 12:47:34;;;;;;;4.80;4.17;;;;;;;;;;4985920;28;20279;-48
2021/12/25 12:50:00;;;;;;;4.63;4.23;;;;;;;;;;4991103;28;20184;-48
2021/12/25 12:52:26;;;;;;;7.60;5.93;;;;;;;;;;4989369;28;20219;-48
2021/12/25 12:54:53;;;;;;;5.93;5.23;;;;;;;;;;4986586;28;20189;-48
2021/12/25 12:57:28;;;;;;;5.23;4.73;;;;;;;;;;4985417;28;20190;-47
2021/12/25 12:59:59;;;;;;;5.67;5.17;;;;;;;;;;4988432;28;20189;-47
2021/12/25 13:02:27;;;;;;;5.37;4.87;;;;;;;;;;4992006;28;20227;-47
2021/12/25 13:04:57;;;;;;;4.70;4.07;;;;;;;;;;4986970;28;20209;-47
2021/12/25 13:07:23;;;;;;;7.23;6.17;;;;;;;;;;4988041;28;20186;-47
2021/12/25 13:10:03;;;;;;;6.80;5.67;;;;;;;;;;4987245;28;20217;-48
2021/12/25 13:12:48;;;;;;;16.23;13.33;;;;;;;;;;4982119;28;20775;-48
2021/12/25 13:15:19;;;;;;;8.93;6.67;;;;;;;;;;4971787;28;20263;-47
2021/12/25 13:17:55;;;;;;;7.80;4.30;;;;;;;;;;4991056;28;20805;-47
2021/12/25 13:20:35;;;;;;;9.70;5.33;;;;;;;;;;4989956;28;20657;-47
2021/12/25 13:23:02;;;;;;;14.27;6.30;;;;;;;;;;4972433;28;20271;-47
2021/12/25 13:25:29;;;;;;;29.37;9.13;;;;;;;;;;4985867;28;20224;-47
2021/12/25 13:27:56;;;;;;;44.63;12.67;;;;;;;;;;4984515;28;20261;-47
2021/12/25 13:30:23;;;;;;;20.60;6.07;;;;;;;;;;4981286;28;20189;-47
2021/12/25 13:32:49;;;;;;;18.57;5.40;;;;;;;;;;4989086;28;20205;-47
2021/12/25 13:35:16;;;;;;;25.20;7.00;;;;;;;;;;4990819;28;20645;-47
2021/12/25 13:37:42;;;;;;;24.27;6.33;;;;;;;;;;4988491;28;20283;-47
2021/12/25 13:40:09;;;;;;;26.70;6.97;;;;;;;;;;4987285;28;20194;-48
2021/12/25 13:42:35;;;;;;;40.63;10.50;;;;;;;;;;4989539;28;20220;-47
2021/12/25 13:45:01;;;;;;;39.67;11.17;;;;;;;;;;4981802;28;20193;-47
2021/12/25 13:47:28;;;;;;;24.20;7.23;;;;;;;;;;4988315;28;20667;-47
2021/12/25 13:49:55;;;;;;;30.17;8.43;;;;;;;;;;4989131;28;20601;-47
2021/12/25 13:52:21;;;;;;;19.93;5.67;;;;;;;;;;4992136;28;20251;-47
2021/12/25 13:55:01;;;;;;;23.20;6.17;;;;;;;;;;4986763;28;20615;-47
2021/12/25 13:57:28;;;;;;;17.87;5.40;;;;;;;;;;4988099;28;20223;-47
2021/12/25 14:00:14;;;;;;;37.30;10.43;;;;;;;;;;4987992;28;20185;-47
2021/12/25 14:02:41;;;;;;;33.10;10.00;;;;;;;;;;4960635;28;20232;-47
2021/12/25 14:05:08;;;;;;;33.53;10.90;;;;;;;;;;4978563;28;20191;-46
2021/12/25 14:07:34;;;;;;;28.77;8.30;;;;;;;;;;4986436;28;20207;-47
2021/12/25 14:10:01;;;;;;;35.07;10.57;;;;;;;;;;4979460;28;20215;-47
2021/12/25 14:12:28;;;;;;;19.33;5.73;;;;;;;;;;4991144;28;20232;-47
2021/12/25 14:14:55;;;;;;;33.60;11.20;;;;;;;;;;4972585;28;20208;-47
2021/12/25 14:17:21;;;;;;;23.47;7.67;;;;;;;;;;4981064;28;20181;-47
2021/12/25 14:19:47;;;;;;;24.30;7.77;;;;;;;;;;4980856;28;20984;-47
2021/12/25 14:22:16;;;;;;;27.07;9.30;;;;;;;;;;4984961;28;20229;-47
2021/12/25 14:24:44;;;;;;;26.70;9.17;;;;;;;;;;4974844;28;20259;-47
2021/12/25 14:27:18;;;;;;;19.30;6.77;;;;;;;;;;4984097;28;20186;-46
2021/12/25 14:29:44;;;;;;;22.80;7.77;;;;;;;;;;4983568;28;20237;-49
2021/12/25 14:32:19;;;;;;;34.87;12.33;;;;;;;;;;4972338;28;20626;-47
2021/12/25 14:34:45;;;;;;;25.97;8.73;;;;;;;;;;4981601;28;20585;-47
2021/12/25 14:37:11;;;;;;;27.60;9.83;;;;;;;;;;4981095;28;20233;-47
2021/12/25 14:39:37;;;;;;;25.97;9.57;;;;;;;;;;4963269;28;20618;-47
2021/12/25 14:42:03;;;;;;;23.03;8.33;;;;;;;;;;4980537;28;20291;-47
2021/12/25 14:44:34;;;;;;;28.07;10.40;;;;;;;;;;4981352;28;20192;-46
2021/12/25 14:47:10;;;;;;;30.83;11.80;;;;;;;;;;4970338;28;20205;-47
2021/12/25 14:49:47;;;;;;;19.47;6.27;;;;;;;;;;4985494;28;20288;-47
2021/12/25 14:52:14;;;;;;;37.10;13.00;;;;;;;;;;4973681;28;20676;-47
2021/12/25 14:54:41;;;;;;;32.23;9.67;;;;;;;;;;4984705;28;20395;-47
2021/12/25 14:57:07;;;;;;;29.80;9.23;;;;;;;;;;4979194;28;20197;-47
2021/12/25 14:59:39;;;;;;;23.77;8.50;;;;;;;;;;4972348;28;20189;-47
2021/12/25 15:02:05;;;;;;;24.13;7.77;;;;;;;;;;4981210;28;20268;-47
2021/12/25 15:04:32;;;;;;;24.23;7.37;;;;;;;;;;4972446;28;20545;-47
2021/12/25 15:07:00;;;;;;;22.80;7.53;;;;;;;;;;4983452;28;20201;-47
2021/12/25 15:09:31;;;;;;;31.93;10.93;;;;;;;;;;4970865;28;20268;-47
2021/12/25 15:12:15;;;;;;;40.17;13.23;;;;;;;;;;4976893;28;20469;-49
2021/12/25 15:14:42;;;;;;;25.00;8.33;;;;;;;;;;4977216;28;20197;-47
2021/12/25 15:17:10;;;;;;;32.57;10.60;;;;;;;;;;4964005;28;20236;-47
2021/12/25 15:19:41;;;;;;;31.03;10.40;;;;;;;;;;4972776;28;20198;-48
2021/12/25 15:22:11;;;;;;;29.33;9.80;;;;;;;;;;4971252;28;20881;-47
2021/12/25 15:24:38;;;;;;;36.17;8.47;;;;;;;;;;5008170;22;20258;-65
2021/12/25 15:27:06;;;;;;;24.07;5.90;;;;;;;;;;5053395;28;20186;-65
2021/12/25 15:29:33;;;;;;;15.60;3.93;;;;;;;;;;5053112;28;20190;-65
2021/12/25 15:32:07;;;;;;;21.03;5.27;;;;;;;;;;5053344;28;20191;-65
2021/12/25 15:34:34;;;;;;;34.07;8.40;;;;;;;;;;5047364;28;21701;-65
2021/12/25 15:37:00;;;;;;;25.33;6.03;;;;;;;;;;5063232;28;20202;-65
2021/12/25 15:39:32;;;;;;;32.63;7.73;;;;;;;;;;5047677;28;20642;-65
2021/12/25 15:42:01;;;;;;;22.83;5.40;;;;;;;;;;5048694;28;20211;-65
2021/12/25 15:44:28;;;;;;;30.50;7.20;;;;;;;;;;5047039;28;20223;-65
2021/12/25 15:46:55;;;;;;;26.60;6.43;;;;;;;;;;5052955;28;20183;-65
2021/12/25 15:49:21;;;;;;;18.40;4.70;;;;;;;;;;5051208;28;20190;-65
2021/12/25 15:51:51;;;;;;;30.63;7.30;;;;;;;;;;5049156;28;20663;-65
2021/12/25 15:54:17;;;;;;;29.00;6.70;;;;;;;;;;5048849;28;20215;-66
2021/12/25 15:56:46;;;;;;;24.60;5.97;;;;;;;;;;5046914;28;20664;-66
2021/12/25 15:59:12;;;;;;;33.00;7.83;;;;;;;;;;5050415;28;20241;-66
2021/12/25 16:01:38;;;;;;;26.03;6.10;;;;;;;;;;5063472;28;20556;-66
2021/12/25 16:04:04;;;;;;;26.43;6.17;;;;;;;;;;5062998;28;20538;-66
2021/12/25 16:06:30;;;;;;;36.00;8.60;;;;;;;;;;5048048;28;20182;-66
2021/12/25 16:08:56;;;;;;;31.53;7.67;;;;;;;;;;5049195;28;20175;-66